Time;durP1;ratioP1;P1;durP2;ratioP2;P2;SDS_P1;SDS_P2;PMS_P1;PMS_P2;Temp;Humidity;BMP_temperature;BMP_pressure;BME280_temperature;BME280_humidity;BME280_pressure;Samples;Min_cycle;Max_cycle;Signal;HPM_P1;HPM_P2
2023/06/30 00:00:57;;;;;;;;;15.00;13.50;;;;;22.47;100.00;98455.22;6066308;28;96321;-62
2023/06/30 00:04:01;;;;;;;;;15.60;14.20;;;;;22.45;100.00;98458.25;6067237;28;96410;-62
2023/06/30 00:07:06;;;;;;;;;11.60;11.60;;;;;22.43;100.00;98457.75;6064581;28;99160;-62
2023/06/30 00:10:10;;;;;;;;;15.20;14.00;;;;;22.40;100.00;98452.88;6049531;28;96711;-62
2023/06/30 00:13:13;;;;;;;;;16.00;15.00;;;;;22.33;100.00;98451.69;6041107;28;96335;-62
2023/06/30 00:16:19;;;;;;;;;16.25;15.00;;;;;22.34;100.00;98448.63;6024321;28;99299;-62
2023/06/30 00:19:23;;;;;;;;;13.00;13.00;;;;;22.33;100.00;98444.25;6024110;28;98637;-62
2023/06/30 00:22:26;;;;;;;;;14.00;13.00;;;;;22.29;100.00;98443.25;6041304;28;96624;-62
2023/06/30 00:25:30;;;;;;;;;14.60;13.60;;;;;22.25;100.00;98441.41;6040308;28;96943;-62
2023/06/30 00:28:33;;;;;;;;;15.00;14.00;;;;;22.20;100.00;98436.84;6042315;28;96854;-62
2023/06/30 00:31:38;;;;;;;;;15.00;14.00;;;;;22.18;100.00;98432.81;6026777;28;96883;-62
2023/06/30 00:34:41;;;;;;;;;14.00;13.60;;;;;22.16;100.00;98430.34;6043397;28;96453;-62
2023/06/30 00:37:45;;;;;;;;;15.00;13.00;;;;;22.13;100.00;98428.25;6043483;28;96951;-62
2023/06/30 00:40:49;;;;;;;;;16.00;16.00;;;;;22.10;100.00;98428.84;6042064;28;96350;-62
2023/06/30 00:43:52;;;;;;;;;13.00;12.00;;;;;22.07;100.00;98439.63;6042297;28;96533;-62
2023/06/30 00:47:00;;;;;;;;;15.00;13.25;;;;;21.99;100.00;98439.22;6010524;28;97179;-62
2023/06/30 00:50:05;;;;;;;;;17.00;17.00;;;;;21.93;100.00;98431.38;6042312;28;97596;-62
2023/06/30 00:53:08;;;;;;;;;14.00;13.50;;;;;21.85;100.00;98421.94;6042063;28;96433;-62
2023/06/30 00:56:12;;;;;;;;;15.00;15.00;;;;;21.77;100.00;98425.41;6026553;28;96758;-62
2023/06/30 00:59:15;;;;;;;;;17.00;16.00;;;;;21.69;100.00;98414.34;6042822;28;96516;-62
2023/06/30 01:02:25;;;;;;;;;15.20;13.60;;;;;21.67;100.00;98422.03;6042324;28;96921;-62
2023/06/30 01:05:36;;;;;;;;;13.40;13.40;;;;;21.59;100.00;98405.19;6042013;28;96637;-62
2023/06/30 01:08:48;;;;;;;;;17.00;16.00;;;;;21.57;100.00;98399.19;6025889;28;98967;-62
2023/06/30 01:11:52;;;;;;;;;15.40;15.40;;;;;21.54;100.00;98396.25;6010585;28;96721;-62
2023/06/30 01:14:56;;;;;;;;;13.75;12.75;;;;;21.52;100.00;98385.56;6042356;28;96347;-62
2023/06/30 01:18:03;;;;;;;;;16.80;16.40;;;;;21.51;100.00;98394.09;6043521;28;96195;-62
2023/06/30 01:21:07;;;;;;;;;14.00;14.00;;;;;21.48;100.00;98383.75;6047505;28;96372;-62
2023/06/30 01:24:13;;;;;;;;;16.00;15.00;;;;;21.44;100.00;98390.97;6046316;28;96399;-62
2023/06/30 01:27:17;;;;;;;;;14.67;13.00;;;;;21.41;100.00;98389.63;6047440;28;97827;-62
2023/06/30 01:30:22;;;;;;;;;13.00;12.25;;;;;21.41;100.00;98388.81;6029252;28;98531;-62
2023/06/30 01:33:28;;;;;;;;;15.50;14.50;;;;;21.36;100.00;98386.97;6047291;28;96333;-62
2023/06/30 01:36:31;;;;;;;;;16.00;15.50;;;;;21.41;100.00;98386.88;6045505;28;96362;-62
2023/06/30 01:39:34;;;;;;;;;16.00;15.40;;;;;21.39;100.00;98385.56;6045692;28;96473;-62
2023/06/30 01:42:39;;;;;;;;;16.60;16.00;;;;;21.35;100.00;98382.63;6013967;28;96884;-62
2023/06/30 01:45:42;;;;;;;;;14.00;14.00;;;;;21.32;100.00;98388.72;6045700;28;96342;-62
2023/06/30 01:48:47;;;;;;;;;15.00;14.00;;;;;21.29;100.00;98391.25;6045375;28;96285;-62
2023/06/30 01:51:51;;;;;;;;;17.00;15.00;;;;;21.23;100.00;98390.53;6045351;28;96453;-62
2023/06/30 01:54:54;;;;;;;;;13.00;13.00;;;;;21.17;100.00;98394.47;6044473;28;96620;-62
2023/06/30 01:57:59;;;;;;;;;15.50;14.50;;;;;21.12;100.00;98391.81;6029006;28;96971;-62
2023/06/30 02:01:03;;;;;;;;;16.00;15.00;;;;;21.10;100.00;98397.59;6029427;28;96411;-62
2023/06/30 02:04:09;;;;;;;;;16.50;15.00;;;;;21.05;100.00;98385.91;6046223;28;96475;-62
2023/06/30 02:07:12;;;;;;;;;16.40;15.40;;;;;20.98;100.00;98394.50;6045358;28;96597;-62
2023/06/30 02:10:15;;;;;;;;;15.00;15.00;;;;;20.91;100.00;98396.03;6045193;28;96858;-62
2023/06/30 02:13:19;;;;;;;;;17.00;16.40;;;;;20.83;100.00;98391.22;6044282;28;96354;-62
2023/06/30 02:16:23;;;;;;;;;17.00;16.00;;;;;20.64;100.00;98381.13;6042856;28;96368;-62
2023/06/30 02:19:29;;;;;;;;;15.00;14.25;;;;;20.52;100.00;98378.06;6044404;28;96389;-62
2023/06/30 02:22:32;;;;;;;;;16.20;15.40;;;;;20.40;100.00;98383.16;6026313;28;99036;-62
2023/06/30 02:25:35;;;;;;;;;13.00;12.25;;;;;20.27;100.00;98386.63;6044122;28;96592;-62
2023/06/30 02:28:39;;;;;;;;;12.00;11.60;;;;;20.19;100.00;98377.16;6044973;28;96524;-62
2023/06/30 02:31:42;;;;;;;;;13.00;12.00;;;;;20.13;100.00;98375.63;6045416;28;96350;-62
2023/06/30 02:34:47;;;;;;;;;12.00;11.00;;;;;20.00;100.00;98362.66;6028478;28;100176;-62
2023/06/30 02:37:51;;;;;;;;;12.50;11.50;;;;;20.04;100.00;98377.38;6013260;28;96676;-62
2023/06/30 02:40:58;;;;;;;;;12.00;11.00;;;;;20.12;100.00;98376.72;6045053;28;96414;-63
2023/06/30 02:44:01;;;;;;;;;14.00;13.00;;;;;20.16;100.00;98379.69;6028395;28;98421;-62
2023/06/30 02:47:05;;;;;;;;;16.25;14.50;;;;;20.22;100.00;98375.75;6044861;28;96472;-62
2023/06/30 02:50:10;;;;;;;;;11.60;11.60;;;;;20.27;100.00;98381.97;6043985;28;96409;-62
2023/06/30 02:53:17;;;;;;;;;13.60;12.40;;;;;20.30;100.00;98380.56;6044127;28;96396;-62
2023/06/30 02:56:22;;;;;;;;;10.20;10.00;;;;;20.33;100.00;98380.78;6044321;28;96489;-62
2023/06/30 02:59:25;;;;;;;;;11.00;10.40;;;;;20.39;100.00;98384.28;6043928;28;96383;-62
2023/06/30 03:02:29;;;;;;;;;11.40;10.00;;;;;20.46;100.00;98383.91;6043946;28;96888;-62
2023/06/30 03:05:34;;;;;;;;;13.00;12.80;;;;;20.50;100.00;98387.66;6043975;28;96567;-62
2023/06/30 03:08:40;;;;;;;;;12.00;10.00;;;;;20.51;100.00;98384.66;6028229;28;96311;-62
2023/06/30 03:11:43;;;;;;;;;10.00;9.80;;;;;20.59;100.00;98386.69;6044170;28;96872;-62
2023/06/30 03:14:47;;;;;;;;;11.00;11.00;;;;;20.64;100.00;98386.59;6012244;28;96925;-62
2023/06/30 03:17:50;;;;;;;;;11.40;10.40;;;;;20.72;100.00;98399.63;6043968;28;96346;-62
2023/06/30 03:20:55;;;;;;;;;9.60;9.60;;;;;20.77;100.00;98386.97;6043534;28;97639;-62
2023/06/30 03:23:59;;;;;;;;;11.60;10.60;;;;;20.81;100.00;98388.00;6042938;28;96966;-62
2023/06/30 03:27:03;;;;;;;;;12.20;11.00;;;;;20.84;100.00;98387.38;6011647;28;97308;-62
2023/06/30 03:30:08;;;;;;;;;12.00;12.00;;;;;20.88;100.00;98385.66;6027264;28;96754;-62
2023/06/30 03:33:15;;;;;;;;;12.00;12.00;;;;;20.90;100.00;98387.00;6027734;28;96888;-62
2023/06/30 03:36:20;;;;;;;;;11.20;11.00;;;;;20.97;100.00;98378.38;6044430;28;96425;-62
2023/06/30 03:39:23;;;;;;;;;11.00;11.00;;;;;21.05;100.00;98391.41;6044657;28;96842;-62
2023/06/30 03:42:27;;;;;;;;;12.25;12.00;;;;;21.12;100.00;98378.09;6025892;28;98864;-62
2023/06/30 03:45:30;;;;;;;;;12.00;12.00;;;;;21.26;100.00;98383.66;6027001;28;96780;-62
2023/06/30 03:48:35;;;;;;;;;11.20;11.00;;;;;21.43;100.00;98389.34;6042784;28;96390;-62
2023/06/30 03:51:41;;;;;;;;;12.00;11.00;;;;;21.59;100.00;98385.19;6042772;28;96529;-62
2023/06/30 03:54:45;;;;;;;;;12.00;12.00;;;;;21.70;100.00;98394.00;6025962;28;97042;-62
2023/06/30 03:57:48;;;;;;;;;13.40;11.40;;;;;21.84;100.00;98381.91;6043259;28;96516;-62
2023/06/30 04:00:51;;;;;;;;;14.00;12.50;;;;;21.91;100.00;98384.22;6026942;28;96365;-62
2023/06/30 04:03:55;;;;;;;;;12.00;11.00;;;;;22.00;100.00;98383.22;6042970;28;96488;-62
2023/06/30 04:07:00;;;;;;;;;10.40;9.00;;;;;22.11;100.00;98377.50;6041752;28;96551;-62
2023/06/30 04:10:04;;;;;;;;;12.40;12.00;;;;;22.14;100.00;98377.69;6024688;28;96916;-62
2023/06/30 04:13:08;;;;;;;;;10.60;10.00;;;;;22.22;100.00;98379.72;6041720;28;96601;-62
2023/06/30 04:16:11;;;;;;;;;10.20;10.20;;;;;22.32;100.00;98379.47;6041509;28;96753;-62
2023/06/30 04:19:15;;;;;;;;;11.00;10.75;;;;;22.41;100.00;98383.09;6040090;28;98676;-62
2023/06/30 04:22:20;;;;;;;;;13.00;12.00;;;;;22.44;100.00;98376.16;6024888;28;99992;-62
2023/06/30 04:25:23;;;;;;;;;13.60;13.00;;;;;22.53;100.00;98377.03;6043459;28;96338;-62
2023/06/30 04:28:26;;;;;;;;;16.50;14.50;;;;;22.66;100.00;98384.44;6043359;28;96412;-62
2023/06/30 04:31:30;;;;;;;;;13.50;13.00;;;;;22.71;100.00;98373.34;6043302;28;96446;-62
2023/06/30 04:34:34;;;;;;;;;15.00;15.00;;;;;22.85;100.00;98376.00;6043395;28;96332;-62
2023/06/30 04:37:41;;;;;;;;;12.80;12.40;;;;;22.90;100.00;98373.13;6043396;28;96364;-62
2023/06/30 04:40:44;;;;;;;;;12.00;11.80;;;;;23.03;100.00;98383.22;6043392;28;96428;-62
2023/06/30 04:43:47;;;;;;;;;13.80;12.40;;;;;23.14;100.00;98381.84;6025846;28;98448;-62
2023/06/30 04:46:51;;;;;;;;;14.00;14.00;;;;;23.24;100.00;98389.00;6043256;28;96368;-62
2023/06/30 04:49:54;;;;;;;;;13.00;12.60;;;;;23.33;100.00;98385.16;6043049;28;96358;-62
2023/06/30 04:52:59;;;;;;;;;11.00;11.00;;;;;23.38;100.00;98381.44;6042436;28;96522;-62
2023/06/30 04:56:02;;;;;;;;;13.00;11.60;;;;;23.50;100.00;98387.22;6046450;28;96471;-66
2023/06/30 04:59:06;;;;;;;;;11.50;11.00;;;;;23.51;100.00;98390.75;6045210;28;96597;-66
2023/06/30 05:02:09;;;;;;;;;14.67;12.67;;;;;23.58;100.00;98380.91;6045223;28;96551;-66
2023/06/30 05:05:13;;;;;;;;;11.20;10.80;;;;;23.66;100.00;98379.31;6045193;28;96378;-66
2023/06/30 05:08:17;;;;;;;;;9.00;8.75;;;;;23.71;100.00;98385.47;6044498;28;98532;-66
2023/06/30 05:11:21;;;;;;;;;11.00;10.20;;;;;23.81;100.00;98373.38;6046109;28;96950;-66
2023/06/30 05:14:24;;;;;;;;;12.00;11.40;;;;;23.80;100.00;98365.44;6046039;28;96129;-66
2023/06/30 05:17:27;;;;;;;;;14.00;14.00;;;;;23.97;100.00;98380.03;6046382;28;96275;-66
2023/06/30 05:20:32;;;;;;;;;13.00;12.00;;;;;24.11;100.00;98377.16;6044335;28;97860;-66
2023/06/30 05:23:37;;;;;;;;;12.00;10.00;;;;;24.26;100.00;98373.94;6028376;28;98548;-66
2023/06/30 05:26:41;;;;;;;;;10.20;10.20;;;;;24.35;100.00;98376.69;6028422;28;96630;-66
2023/06/30 05:29:44;;;;;;;;;10.00;10.00;;;;;24.45;100.00;98373.63;6028760;28;97865;-66
2023/06/30 05:32:47;;;;;;;;;10.00;10.00;;;;;24.58;100.00;98372.66;6045685;28;96412;-66
2023/06/30 05:35:51;;;;;;;;;12.80;12.20;;;;;24.64;100.00;98376.84;6045792;28;96415;-66
2023/06/30 05:38:55;;;;;;;;;13.20;11.00;;;;;24.79;100.00;98381.03;6045636;28;96779;-66
2023/06/30 05:41:59;;;;;;;;;10.00;10.00;;;;;24.85;100.00;98374.22;6044533;28;96868;-66
2023/06/30 05:45:02;;;;;;;;;9.40;9.00;;;;;25.07;100.00;98378.78;6044763;28;96539;-66
2023/06/30 05:48:06;;;;;;;;;10.00;9.60;;;;;25.24;100.00;98375.94;6044257;28;96513;-66
2023/06/30 05:51:09;;;;;;;;;9.00;9.00;;;;;25.34;100.00;98375.59;6043977;28;96638;-66
2023/06/30 05:54:14;;;;;;;;;10.00;10.00;;;;;25.49;100.00;98372.28;6044903;28;96934;-66
2023/06/30 05:57:18;;;;;;;;;10.00;9.40;;;;;25.57;100.00;98370.63;6043874;28;96491;-66
2023/06/30 06:00:23;;;;;;;;;9.00;7.80;;;;;25.66;100.00;98377.72;6045338;28;96337;-66
2023/06/30 06:03:30;;;;;;;;;8.60;8.00;;;;;25.74;100.00;98370.56;6046158;28;96431;-66
2023/06/30 06:06:34;;;;;;;;;10.00;8.40;;;;;25.90;100.00;98379.91;6010585;28;96881;-65
2023/06/30 06:09:39;;;;;;;;;6.00;5.00;;;;;26.05;100.00;98370.19;6041214;28;96271;-66
2023/06/30 06:12:42;;;;;;;;;10.00;8.00;;;;;26.08;96.17;98378.63;6026098;28;96610;-66
2023/06/30 06:15:46;;;;;;;;;6.75;6.00;;;;;26.19;94.67;98371.53;6042780;28;96415;-66
2023/06/30 06:18:50;;;;;;;;;8.00;8.00;;;;;26.33;95.47;98371.34;6043420;28;96635;-66
2023/06/30 06:21:53;;;;;;;;;7.00;6.00;;;;;26.56;96.07;98369.81;6044052;28;96466;-65
2023/06/30 06:24:58;;;;;;;;;7.00;7.00;;;;;26.66;91.86;98374.13;6027284;28;98435;-66
2023/06/30 06:28:01;;;;;;;;;9.00;8.75;;;;;26.80;90.71;98371.88;6045292;28;96316;-66
2023/06/30 06:31:05;;;;;;;;;9.00;9.00;;;;;26.94;90.99;98368.84;6044079;28;96393;-66
2023/06/30 06:34:09;;;;;;;;;9.00;8.33;;;;;27.10;90.89;98378.91;6044775;28;96284;-66
2023/06/30 06:37:12;;;;;;;;;10.00;9.00;;;;;27.25;87.24;98379.41;6044680;28;96287;-66
2023/06/30 06:40:17;;;;;;;;;7.50;7.25;;;;;27.42;87.88;98377.22;6044846;28;97708;-66
2023/06/30 06:43:24;;;;;;;;;9.00;9.00;;;;;27.60;89.69;98377.06;6044570;28;96333;-66
2023/06/30 06:46:27;;;;;;;;;8.00;8.00;;;;;27.69;87.47;98370.25;6027507;28;96469;-66
2023/06/30 06:49:31;;;;;;;;;7.40;6.40;;;;;27.88;85.36;98359.38;6044870;28;96380;-66
2023/06/30 06:52:34;;;;;;;;;11.00;10.40;;;;;28.04;84.23;98367.78;6027782;28;96220;-66
2023/06/30 06:55:39;;;;;;;;;8.20;8.20;;;;;28.14;84.44;98367.34;6044517;28;96948;-66
2023/06/30 06:58:43;;;;;;;;;7.00;7.00;;;;;28.35;85.77;98359.66;6044435;28;96980;-66
2023/06/30 07:01:46;;;;;;;;;9.20;8.20;;;;;28.56;83.69;98367.78;6044437;28;96344;-66
2023/06/30 07:04:49;;;;;;;;;6.00;6.00;;;;;28.69;83.50;98363.81;6043038;28;96521;-66
2023/06/30 07:07:53;;;;;;;;;9.00;8.00;;;;;28.87;79.49;98360.75;6044295;28;96362;-65
2023/06/30 07:10:57;;;;;;;;;8.00;8.00;;;;;28.99;74.31;98360.69;6044202;28;96319;-66
2023/06/30 07:14:01;;;;;;;;;9.00;8.00;;;;;28.95;71.28;98357.81;6027306;28;96346;-66
2023/06/30 07:17:05;;;;;;;;;7.00;6.40;;;;;28.84;66.23;98368.63;6042929;28;96823;-66
2023/06/30 07:20:09;;;;;;;;;6.20;5.60;;;;;28.90;65.12;98362.81;6047274;28;97220;-66
2023/06/30 07:23:12;;;;;;;;;8.00;8.00;;;;;29.11;65.60;98360.63;6050126;28;96641;-66
2023/06/30 07:26:17;;;;;;;;;8.60;8.60;;;;;29.25;64.04;98366.53;6064417;28;98883;-66
2023/06/30 07:29:21;;;;;;;;;8.00;8.00;;;;;29.21;54.21;98365.66;6064580;28;96650;-66
2023/06/30 07:32:24;;;;;;;;;9.00;8.00;;;;;29.20;57.17;98361.25;6049259;28;96859;-66
2023/06/30 07:35:27;;;;;;;;;6.80;6.80;;;;;29.27;54.30;98361.44;6067755;28;97004;-66
2023/06/30 07:38:31;;;;;;;;;6.40;6.00;;;;;29.21;51.35;98358.13;6066076;28;96510;-66
2023/06/30 07:41:36;;;;;;;;;9.00;9.00;;;;;29.37;54.22;98346.25;6066364;28;97590;-66
2023/06/30 07:44:40;;;;;;;;;7.40;7.00;;;;;29.57;54.67;98342.38;6065533;28;97382;-67
2023/06/30 07:47:45;;;;;;;;;9.00;8.00;;;;;29.88;53.59;98342.34;6066324;28;96488;-66
2023/06/30 07:50:49;;;;;;;;;6.00;6.00;;;;;29.88;49.11;98345.13;6066755;28;96397;-66
2023/06/30 07:54:10;;;;;;;;;7.00;7.00;;;;;29.99;47.24;98340.66;6048823;28;97344;-66
2023/06/30 07:57:15;;;;;;;;;5.50;5.50;;;;;30.07;46.85;98334.06;6065345;28;96484;-66
2023/06/30 08:00:19;;;;;;;;;5.00;5.00;;;;;30.16;47.37;98336.63;6066952;28;96576;-66
2023/06/30 08:03:23;;;;;;;;;6.00;6.00;;;;;30.26;46.74;98329.69;6065488;28;98993;-67
2023/06/30 08:06:27;;;;;;;;;6.00;6.00;;;;;30.24;46.77;98337.63;6067070;28;96240;-66
2023/06/30 08:09:32;;;;;;;;;6.00;6.00;;;;;30.41;45.88;98331.59;6065577;28;96429;-66
2023/06/30 08:12:36;;;;;;;;;6.60;6.60;;;;;30.54;46.08;98322.00;6062371;28;96354;-66
2023/06/30 08:15:40;;;;;;;;;8.00;7.20;;;;;30.82;45.04;98327.31;6063123;28;97058;-66
2023/06/30 08:18:44;;;;;;;;;7.40;7.40;;;;;31.05;45.18;98328.16;6065367;28;96452;-66
2023/06/30 08:21:54;;;;;;;;;6.00;6.00;;;;;31.22;43.93;98324.91;6066523;28;96166;-66
2023/06/30 08:24:57;;;;;;;;;6.00;6.00;;;;;31.31;43.98;98319.88;6064259;28;97472;-66
2023/06/30 08:28:02;;;;;;;;;7.25;7.00;;;;;31.67;44.28;98323.25;6064235;28;96735;-65
2023/06/30 08:31:06;;;;;;;;;6.00;5.60;;;;;31.84;41.86;98325.50;6065282;28;96376;-66
2023/06/30 08:34:10;;;;;;;;;6.80;6.20;;;;;31.95;42.04;98320.09;6066389;28;96438;-66
2023/06/30 08:37:13;;;;;;;;;7.40;6.40;;;;;31.94;39.89;98321.28;6066505;28;96848;-67
2023/06/30 08:40:20;;;;;;;;;8.00;7.60;;;;;31.91;40.42;98322.03;6066470;28;96352;-67
2023/06/30 08:43:28;;;;;;;;;8.00;7.00;;;;;31.98;40.99;98322.13;6066663;28;96498;-67
2023/06/30 08:46:33;;;;;;;;;7.00;7.00;;;;;32.03;40.42;98319.00;6066507;28;96595;-67
2023/06/30 08:49:38;;;;;;;;;7.00;6.60;;;;;32.28;40.97;98320.19;6065474;28;96941;-67
2023/06/30 08:52:41;;;;;;;;;5.20;5.00;;;;;32.41;38.19;98323.53;6065784;28;96384;-67
2023/06/30 08:55:46;;;;;;;;;7.00;6.00;;;;;32.60;37.11;98313.00;6048806;28;97267;-67
2023/06/30 08:58:51;;;;;;;;;5.20;5.20;;;;;32.87;37.72;98307.34;6066030;28;96682;-67
2023/06/30 09:01:58;;;;;;;;;5.20;5.00;;;;;32.89;37.32;98302.19;6066031;28;96291;-67
2023/06/30 09:05:03;;;;;;;;;4.00;4.00;;;;;33.09;35.93;98297.97;6066161;28;96279;-66
2023/06/30 09:08:16;;;;;;;;;4.00;4.00;;;;;32.91;34.77;98243.97;6065875;28;96552;-66
2023/06/30 09:11:23;;;;;;;;;5.00;5.00;;;;;33.37;32.85;98297.47;6064892;28;96894;-67
2023/06/30 09:14:33;;;;;;;;;6.00;6.00;;;;;33.48;31.55;98287.16;6066418;28;96450;-67
2023/06/30 09:17:37;;;;;;;;;6.00;6.00;;;;;33.28;31.61;98285.84;6048242;28;98392;-67
2023/06/30 09:20:41;;;;;;;;;9.00;7.60;;;;;33.49;32.58;98294.38;6065934;28;96456;-62
2023/06/30 09:23:44;;;;;;;;;7.00;6.75;;;;;33.57;33.38;98293.25;6065402;28;96735;-62
2023/06/30 09:26:49;;;;;;;;;5.00;5.00;;;;;33.41;30.82;98296.31;6048178;28;96919;-62
2023/06/30 09:29:56;;;;;;;;;6.00;6.00;;;;;33.65;32.77;98286.50;6041960;28;96529;-62
2023/06/30 09:33:00;;;;;;;;;6.40;5.40;;;;;33.70;31.75;98294.56;6042138;28;96568;-62
2023/06/30 09:36:04;;;;;;;;;8.25;7.75;;;;;33.97;33.00;98292.31;6040374;28;99458;-62
2023/06/30 09:39:08;;;;;;;;;9.00;8.00;;;;;33.99;30.88;98289.94;6042670;28;96538;-61
2023/06/30 09:42:16;;;;;;;;;3.00;3.00;;;;;33.99;31.67;98281.56;6044720;28;96450;-61
2023/06/30 09:45:21;;;;;;;;;6.00;6.00;;;;;34.20;31.23;98292.91;6046146;28;96448;-62
2023/06/30 09:48:29;;;;;;;;;6.00;6.00;;;;;34.48;30.05;98283.00;6042301;28;99230;-62
2023/06/30 09:51:34;;;;;;;;;8.00;7.25;;;;;33.93;30.27;98277.53;6055336;28;97034;-62
2023/06/30 09:54:37;;;;;;;;;6.00;6.00;;;;;33.65;29.29;98280.91;6045410;28;96288;-62
2023/06/30 09:57:47;;;;;;;;;3.40;3.40;;;;;33.67;30.33;98275.78;6044447;28;96453;-62
2023/06/30 10:00:52;;;;;;;;;7.60;7.60;;;;;34.02;31.90;98277.97;6044857;28;96818;-62
2023/06/30 10:03:57;;;;;;;;;6.40;6.40;;;;;34.46;30.66;98261.00;6027657;28;96691;-62
2023/06/30 10:07:03;;;;;;;;;5.00;5.00;;;;;34.57;30.24;98263.81;6045320;28;96819;-62
2023/06/30 10:10:10;;;;;;;;;5.00;5.00;;;;;34.79;30.92;98262.72;6046305;28;96728;-62
2023/06/30 10:13:16;;;;;;;;;6.00;5.80;;;;;34.85;29.69;98251.91;6027138;28;99112;-62
2023/06/30 10:16:22;;;;;;;;;4.00;4.00;;;;;34.90;29.71;98252.31;6025313;28;96953;-62
2023/06/30 10:19:28;;;;;;;;;4.60;4.60;;;;;34.97;27.23;98266.34;6043231;28;96841;-62
2023/06/30 10:22:32;;;;;;;;;6.00;6.00;;;;;35.06;27.85;98258.34;6043385;28;97089;-62
2023/06/30 10:25:38;;;;;;;;;5.40;5.00;;;;;35.16;29.82;98246.34;6025669;28;99530;-62
2023/06/30 10:28:42;;;;;;;;;5.60;5.00;;;;;35.36;28.95;98248.78;6043327;28;96319;-60
2023/06/30 10:31:48;;;;;;;;;6.00;6.00;;;;;35.56;27.58;98247.16;6044992;28;96545;-59
2023/06/30 10:34:51;;;;;;;;;6.20;6.20;;;;;35.40;28.57;98243.97;6045730;28;96906;-62
2023/06/30 10:37:55;;;;;;;;;7.00;7.00;;;;;35.29;28.18;98238.34;6012504;28;96826;-62
2023/06/30 10:41:17;;;;;;;;;3.60;3.60;;;;;35.10;28.55;98242.34;6045188;28;96607;-62
2023/06/30 10:44:20;;;;;;;;;6.00;6.00;;;;;35.09;26.70;98239.97;6045200;28;96425;-62
2023/06/30 10:47:27;;;;;;;;;4.00;4.00;;;;;35.00;26.60;98242.31;6045340;28;96362;-62
2023/06/30 10:50:41;;;;;;;;;6.00;6.00;;;;;35.04;26.44;98229.91;6044730;28;96394;-62
2023/06/30 10:53:44;;;;;;;;;5.00;5.00;;;;;34.82;27.55;98224.72;6043786;28;96343;-62
2023/06/30 10:56:48;;;;;;;;;5.60;5.00;;;;;34.78;27.66;98217.13;6045157;28;96308;-62
2023/06/30 11:00:05;;;;;;;;;4.00;4.00;;;;;35.14;29.87;98223.53;6042865;28;96951;-62
2023/06/30 11:03:10;;;;;;;;;5.00;4.00;;;;;35.32;27.33;98231.16;6042588;28;96905;-62
2023/06/30 11:06:19;;;;;;;;;6.00;5.50;;;;;35.26;26.93;98216.75;6041638;28;99016;-62
2023/06/30 11:09:23;;;;;;;;;6.00;5.00;;;;;35.26;28.10;98224.34;6044659;28;96770;-62
2023/06/30 11:12:28;;;;;;;;;7.00;7.00;;;;;35.34;27.58;98214.72;6043481;28;96311;-62
2023/06/30 11:15:37;;;;;;;;;7.00;6.50;;;;;35.25;27.05;98220.75;6044621;28;96925;-62
2023/06/30 11:18:41;;;;;;;;;6.00;6.00;;;;;35.51;28.17;98222.31;6044424;28;96591;-62
2023/06/30 11:22:23;;;;;;;;;7.00;7.00;;;;;35.54;26.96;98218.72;6044775;28;96496;-62
2023/06/30 11:25:26;;;;;;;;;7.00;7.00;;;;;35.05;27.55;98211.91;6043079;28;97245;-62
2023/06/30 11:28:30;;;;;;;;;6.80;6.80;;;;;34.99;28.04;98205.09;6042607;28;96325;-62
2023/06/30 11:31:37;;;;;;;;;6.40;6.00;;;;;34.97;28.60;98215.94;6044221;28;96543;-62
2023/06/30 11:34:42;;;;;;;;;6.75;6.75;;;;;34.75;29.20;98203.09;6041932;28;96286;-62
2023/06/30 11:37:49;;;;;;;;;7.20;7.20;;;;;34.42;30.11;98207.00;6026894;28;98396;-62
2023/06/30 11:40:52;;;;;;;;;9.50;8.50;;;;;34.35;30.08;98201.41;6040171;28;96406;-62
2023/06/30 11:43:56;;;;;;;;;5.60;5.00;;;;;34.67;30.69;98199.50;6041015;28;96470;-62
2023/06/30 11:47:01;;;;;;;;;6.00;5.60;;;;;35.03;29.52;98199.53;6025149;28;98991;-61
2023/06/30 11:50:10;;;;;;;;;6.00;6.00;;;;;35.35;30.51;98202.31;6043822;28;96541;-61
2023/06/30 11:53:14;;;;;;;;;9.00;7.60;;;;;35.44;28.14;98197.09;6042313;28;97289;-62
2023/06/30 11:56:20;;;;;;;;;6.33;6.33;;;;;35.26;28.72;98204.75;6042653;28;96444;-62
2023/06/30 11:59:24;;;;;;;;;6.00;5.80;;;;;35.05;29.22;98211.13;6043361;28;96369;-61
2023/06/30 12:02:28;;;;;;;;;8.00;8.00;;;;;34.77;29.15;98207.13;6041589;28;96355;-62
2023/06/30 12:05:32;;;;;;;;;7.00;7.00;;;;;34.42;29.57;98201.41;6043573;28;96492;-62
2023/06/30 12:08:38;;;;;;;;;6.00;5.00;;;;;34.44;28.71;98198.22;6043425;28;97620;-62
2023/06/30 12:11:42;;;;;;;;;6.00;6.00;;;;;34.46;29.01;98193.00;6041856;28;96578;-62
2023/06/30 12:14:45;;;;;;;;;7.00;6.00;;;;;34.17;30.01;98200.50;6023090;28;97130;-62
2023/06/30 12:17:54;;;;;;;;;7.00;7.00;;;;;34.27;29.34;98197.78;6023984;28;99469;-62
2023/06/30 12:20:59;;;;;;;;;6.60;6.60;;;;;34.30;29.55;98194.22;6040686;28;98907;-62
2023/06/30 12:24:04;;;;;;;;;6.00;6.00;;;;;34.34;29.62;98192.22;6040518;28;97484;-62
2023/06/30 12:27:09;;;;;;;;;8.00;8.00;;;;;34.19;29.43;98176.56;6042969;28;96434;-62
2023/06/30 12:30:16;;;;;;;;;7.00;7.00;;;;;34.22;30.14;98186.16;6043170;28;96319;-62
2023/06/30 12:33:22;;;;;;;;;5.20;5.20;;;;;34.33;30.10;98187.00;6043753;28;96630;-62
2023/06/30 12:36:30;;;;;;;;;8.00;6.40;;;;;34.45;29.58;98183.84;6040918;28;96676;-61
2023/06/30 12:39:33;;;;;;;;;6.80;6.40;;;;;34.66;29.52;98180.25;6025816;28;98461;-62
2023/06/30 12:42:37;;;;;;;;;6.00;5.00;;;;;34.86;29.82;98173.09;6041753;28;96484;-62
2023/06/30 12:45:40;;;;;;;;;7.00;6.00;;;;;35.14;29.32;98175.09;6041304;28;96598;-62
2023/06/30 12:48:45;;;;;;;;;5.20;4.80;;;;;35.30;29.62;98166.28;6041698;28;96398;-62
2023/06/30 12:51:49;;;;;;;;;4.60;4.60;;;;;35.49;29.62;98168.66;6041791;28;96288;-62
2023/06/30 12:54:53;;;;;;;;;7.00;7.00;;;;;35.68;28.41;98161.84;6041729;28;96866;-62
2023/06/30 12:57:57;;;;;;;;;6.00;6.00;;;;;35.76;27.92;98158.59;6025011;28;96793;-62
2023/06/30 13:01:00;;;;;;;;;5.00;5.00;;;;;35.79;27.25;98162.59;6042137;28;96334;-62
2023/06/30 13:04:04;;;;;;;;;6.00;5.00;;;;;35.67;28.13;98169.44;6039343;28;96323;-62
2023/06/30 13:07:09;;;;;;;;;6.00;6.00;;;;;35.64;28.45;98147.78;6041943;28;98059;-62
2023/06/30 13:10:13;;;;;;;;;6.00;6.00;;;;;35.53;27.99;98145.00;6041836;28;96450;-62
2023/06/30 13:13:17;;;;;;;;;8.00;8.00;;;;;34.88;28.34;98150.31;6042566;28;96595;-62
2023/06/30 13:16:20;;;;;;;;;6.60;6.60;;;;;34.62;29.23;98149.47;6029719;28;96370;-62
2023/06/30 13:19:24;;;;;;;;;7.00;7.00;;;;;34.51;29.63;98137.44;6046709;28;96371;-62
2023/06/30 13:22:29;;;;;;;;;4.00;4.00;;;;;34.74;30.06;98146.31;6046478;28;96361;-62
2023/06/30 13:25:32;;;;;;;;;5.00;5.00;;;;;34.65;29.03;98140.25;6046124;28;96433;-62
2023/06/30 13:28:36;;;;;;;;;5.00;5.00;;;;;34.68;30.11;98125.50;6047846;28;97140;-62
2023/06/30 13:31:39;;;;;;;;;5.60;5.60;;;;;34.90;29.86;98131.09;6070160;28;96269;-62
2023/06/30 13:34:43;;;;;;;;;5.50;5.00;;;;;34.95;29.48;98125.06;6069591;28;96442;-62
2023/06/30 13:37:49;;;;;;;;;7.00;6.80;;;;;34.98;29.50;98115.88;6046435;28;96361;-62
2023/06/30 13:40:53;;;;;;;;;7.25;7.25;;;;;35.06;30.76;98123.06;6044271;28;97090;-62
2023/06/30 13:43:57;;;;;;;;;7.60;7.60;;;;;35.01;29.65;98113.06;6044467;28;96812;-62
2023/06/30 13:47:00;;;;;;;;;5.00;5.00;;;;;35.11;28.47;98103.06;6044113;28;96286;-61
2023/06/30 13:50:04;;;;;;;;;6.00;6.00;;;;;35.20;29.95;98098.66;6044148;28;96764;-61
2023/06/30 13:53:09;;;;;;;;;5.00;5.00;;;;;35.16;28.87;98097.84;6027037;28;96292;-62
2023/06/30 13:56:12;;;;;;;;;7.00;7.00;;;;;35.18;29.66;98095.47;6044215;28;96861;-62
2023/06/30 13:59:16;;;;;;;;;8.00;7.00;;;;;34.91;28.64;98102.69;6044700;28;96602;-62
2023/06/30 14:02:20;;;;;;;;;5.00;4.00;;;;;34.48;29.37;98095.47;6045718;28;96230;-62
2023/06/30 14:05:24;;;;;;;;;6.40;6.00;;;;;34.27;29.79;98097.03;6029103;28;96459;-62
2023/06/30 14:08:29;;;;;;;;;6.25;6.25;;;;;34.29;30.23;98094.66;6028675;28;97013;-62
2023/06/30 14:11:32;;;;;;;;;5.60;5.60;;;;;34.46;30.45;98086.66;6045610;28;96616;-62
2023/06/30 14:14:35;;;;;;;;;8.50;8.50;;;;;34.55;30.23;98076.66;6042754;28;96357;-62
2023/06/30 14:17:39;;;;;;;;;5.20;5.20;;;;;34.85;30.39;98069.88;6042912;28;96571;-62